Aktualne dane pomiarowe

Uwaga, wersja testowa! Automatyczne pobieranie danych za pomocą narzędzi lub skryptów to umożliwiających jest zabronione.

Dane meteo z obszaru Polski uzyskane na podstawie depesz SYNOP pobieranych co godzinę z NWS. Najedź myszką na symbol przedstawiony w tabeli, aby uzyskać informacje co do jego znaczenia. Prosimy pamiętać, że to testowa wersja strony, która jeszcze nie jest ukończona. Stworzono również jest krótki FAQ dotyczący korzystania z tej podstrony Anomalie temperatury w chwili obecnej odniesione są do okresu referencyjnego 1951-2016. Okres ten będzie później zmieniony na 1981-2010. Kliknij ikonę aby pobrać plik CSV. Kliknij ikonę aby wygenerować mapę synoptyczną dla danego terminu.

Wybierz Datę:    

        

Krosno (12670)

Dane terminowe dla wybranej stacji. Kliknij datę, aby otrzymać dane z tego terminu dla wszystkich stacji.

TemperaturaZachmurzenieWiatrCiśnienieOpadyPogoda
 Data t td wb tx tn tg rh  Nt Nl Cl Cm Ch ws wd g1 g2 wx mslp ppp ch 24h 12h t ww ww w1 w2  
2019-07-20 23:00:00 19.0 15.8 16.8--- 8228.0wx-2wx--21018.2 979.5 0.0---------
2019-07-20 22:00:00 19.3 15.9 16.9--- 8130.0wx-wx3wx--31018.1 979.5 0.4---------
2019-07-20 21:00:00 19.5 15.5 16.8--- 7835.0wx-wx2wx---1018.2 979.6 0.6---------
2019-07-20 20:00:00 19.7 16.1 17.2--- 8030.0wx-wxwx2wx--21018.1 979.5 0.3---------
2019-07-20 19:00:00 20.1 16.4 17.5--- 7930.0wxwxwxwxwx2wx--21017.6 979.1 -0.1---------
2019-07-20 18:00:00 20.3 16.8 17.9 25.9 18.6- 8023.0wxwxwxwxwx1wx-1211017.5 979.0 0.2- 9.012wx-w1w2--
2019-07-20 17:00:00 20.1 17.4 18.2--- 8425.0wxwxwxwx3wx--31017.7 979.2 0.2---wx-w1--
2019-07-20 16:00:00 19.6 17.1 17.8--- 863.0wxwxwx4wx121241017.8 979.2 -0.1---wx-w1--
2019-07-20 15:00:00 25.3 15.4 18.9--- 5421.0wxwxwxwx3wx--31016.6 978.8 -1.0---------
2019-07-20 14:00:00 25.6 14.8 18.7--- 5130.0wxwxwxwx4wx--41016.8 979.0 -1.1---------
2019-07-20 13:00:00 24.5 14.7 18.2--- 5430.0wxwxwxwx4wx--41017.2 979.3 -0.8---------
2019-07-20 12:00:00 23.4 14.8 17.9--- 5935.0wxwxwxwx5wx--51017.9 979.8 -0.3- 0.56wx-w1--
2019-07-20 11:00:00 22.1 14.6 17.2--- 6330.0wxwxwxwx3wx--31018.4 980.1 0.4---------
2019-07-20 10:00:00 20.1 14.1 16.2--- 6830.0wxwxwxwx4wx--41018.6 980.1 0.6---------
2019-07-20 09:00:00 20.2 14.4 16.4--- 6926.0wxwxwxwx4wx--41018.6 980.1 0.7---wx---
2019-07-20 08:00:00 19.5 15.0 16.5--- 756.0wxwxwxwx3wx--31018.3 979.7 0.7---wx---
2019-07-20 07:00:00 20.5 14.5 16.6--- 6921.0wx-wxwx2wx--21018.0 979.5 0.6---------
2019-07-20 06:00:00 18.7 13.0 15.0 19.4 15.6 15 6930.0wxwxwxwxwx1wx--11018.1 979.4 0.7--12----- 11.6
2019-07-20 05:00:00 17.0 13.0 14.3--- 7730.0wxwxwxwxwx1wx---1017.9 979.0 0.5---------
2019-07-20 04:00:00 17.1 12.5 14.1--- 7445.0wxwxwxwx1wx--11017.8 978.9 0.6---------
2019-07-20 03:00:00 16.6 12.6 13.9--- 7735.0wxwxwxwx2wx--21017.7 978.7 0.4---------
2019-07-20 02:00:00 16.4 12.5 13.8--- 7840.0wx-wx2wx--21017.5 978.5 0.4---------
2019-07-20 01:00:00 15.7 12.5 13.5--- 8127.0wx-wx2wx--21017.4 978.3 0.1---------
2019-07-20 00:00:00 16.0 13.0 14.0--- 8224.0wx-wx2wx--21017.3 978.3 0.2--6wx-w1--
2019-07-19 23:00:00 16.0 13.4 14.2--- 8514.0wx-wx3wx---1017.1 978.1 0.0---------
2019-07-19 22:00:00 16.3 12.9 14.0--- 8030.0wx-wxwx2wx--21017.2 978.2 0.6---------
2019-07-19 21:00:00 17.3 13.5 14.7--- 7830.0wx-wxwx2wx--21016.9 978.1 0.2---wx-w1--
2019-07-19 20:00:00 17.1 13.7 14.8--- 8030.0wx-wxwx2wx--21017.0 978.1 0.6---------
2019-07-19 19:00:00 18.6 13.5 15.2--- 7235.0wxwxwxwx1wx--11016.3 977.6 0.9---wx-w1--
2019-07-19 18:00:00 19.4 13.2 15.4 26.6 17.1- 6735.0wxwxwx2wx-1021016.5 977.9 1.6--12wx-w1w2--
2019-07-19 17:00:00 21.7 11.5 15.5--- 5250.0wxwxwxwx4wx--41015.7 977.5 1.2---wx-w1w2--
2019-07-19 16:00:00 23.6 11.7 16.4--- 4750.0wxwxwxwx5wx-951014.7 976.7 0.2---wx---
2019-07-19 15:00:00 25.2 11.1 16.8--- 4130.0wxwxwxwxwx5wx101051014.0 976.3 -0.4---------
2019-07-19 14:00:00 25.6 10.3 16.6--- 3840.0wxwxwxwxwx2wx--21014.0 976.3 -0.6---------
2019-07-19 13:00:00 25.6 11.1 16.9--- 4030.0wxwxwxwxwx5wx--51014.2 976.5 -0.7---------
2019-07-19 12:00:00 26.3 10.9 17.1--- 3827.0wxwxwxwx3wx--31014.3 976.7 -0.6- 0.06------
2019-07-19 11:00:00 25.4 9.7 16.2--- 3730.0wxwxwxwx2wx--21014.6 976.9 -0.5---------
2019-07-19 10:00:00 24.5 8.9 15.5--- 3729.0wxwxwxwx2wx--21015.1 977.2 -0.2---------
2019-07-19 09:00:00 23.1 10.3 15.5--- 4440.0wxwxwxwx2wx--21015.3 977.3 -0.1---------
2019-07-19 08:00:00 22.1 12.7 16.2--- 5526.0wxwxwxwx2wx--21015.6 977.4 0.1---------
2019-07-19 07:00:00 19.8 12.6 15.2--- 633.7wxwxwxwx1wx--11015.9 977.4 0.4----22----
2019-07-19 06:00:00 17.3 12.7 14.3 20.1 12.1 12 7430.0wxwxwxwx2wx--21016.2 977.4 0.4- 0.012-22--- 11.2
2019-07-19 05:00:00 14.4 11.2 12.3--- 8130.0wxwxwx3wx--31016.5 977.3 0.6----22----
2019-07-19 04:00:00 12.8 10.7 11.4--- 8730.0wxwxwx4wx--41016.4 977.0 0.2----22----
2019-07-19 03:00:00 12.6 10.1 10.9--- 8530.0wxwxwx3wx--31016.5 977.0 0.3----22----
2019-07-19 02:00:00 12.9 10.4 11.2--- 8535.0wx-wx4wx--41016.1 976.7 0.2----22----
2019-07-19 01:00:00 14.2 11.0 12.1--- 8130.0wx-wx3wx--31016.0 976.8 0.4----22----
2019-07-19 00:00:00 15.0 11.0 12.4--- 7735.0wx-wx3wx--31015.8 976.7 0.6- 0.06-22----
1.7 ms

 

Print Friendly, PDF & Email